createdAt,value
2019-04-07T00:02:34.506Z,8.10
2019-04-07T00:05:24.650Z,8.00
2019-04-07T00:08:15.079Z,7.90
2019-04-07T00:11:05.752Z,7.80
2019-04-07T00:13:56.251Z,7.70
2019-04-07T00:16:47.132Z,7.70
2019-04-07T00:19:38.989Z,7.60
2019-04-07T00:22:31.472Z,7.60
2019-04-07T00:25:22.707Z,7.50
2019-04-07T00:28:13.209Z,7.50
2019-04-07T00:31:04.187Z,7.40
2019-04-07T00:33:54.669Z,7.40
2019-04-07T00:36:45.899Z,7.40
2019-04-07T00:39:36.718Z,7.30
2019-04-07T00:42:27.408Z,7.30
2019-04-07T00:45:18.444Z,7.30
2019-04-07T00:48:09.060Z,7.20
2019-04-07T00:51:00.291Z,7.10
2019-04-07T00:53:51.929Z,7.10
2019-04-07T00:56:42.341Z,7.10
2019-04-07T00:59:33.541Z,7.10
2019-04-07T01:02:24.463Z,7.00
2019-04-07T01:05:15.425Z,7.00
2019-04-07T01:08:07.109Z,7.10
2019-04-07T01:10:58.330Z,7.10
2019-04-07T01:13:50.530Z,7.10
2019-04-07T01:16:41.758Z,7.20
2019-04-07T01:19:33.291Z,7.20
2019-04-07T01:22:22.767Z,7.20
2019-04-07T01:25:14.949Z,7.30
2019-04-07T01:28:05.463Z,7.30
2019-04-07T01:30:56.805Z,7.30
2019-04-07T01:33:46.872Z,7.30
2019-04-07T01:36:37.269Z,7.20
2019-04-07T01:39:27.649Z,7.10
2019-04-07T01:42:24.709Z,7.00
2019-04-07T01:45:31.919Z,7.00
2019-04-07T01:48:50.109Z,6.90
2019-04-07T01:51:59.773Z,6.80
2019-04-07T01:55:07.009Z,6.80
2019-04-07T01:58:15.570Z,6.80
2019-04-07T02:01:51.793Z,6.90
2019-04-07T02:05:01.820Z,6.90
2019-04-07T02:08:10.966Z,6.90
2019-04-07T02:11:18.731Z,7.00
2019-04-07T02:14:20.185Z,7.10
2019-04-07T02:17:21.958Z,7.20
2019-04-07T02:20:47.760Z,7.30
2019-04-07T02:24:12.872Z,7.40
2019-04-07T02:27:25.222Z,7.50
2019-04-07T02:30:43.342Z,7.50
2019-04-07T02:33:42.454Z,7.50
2019-04-07T02:36:56.029Z,7.40
2019-04-07T02:39:54.805Z,7.40
2019-04-07T02:42:50.374Z,7.30
2019-04-07T02:45:57.926Z,7.30
2019-04-07T02:49:10.767Z,7.30
2019-04-07T02:52:14.954Z,7.20
2019-04-07T02:55:26.573Z,7.20
2019-04-07T02:58:27.661Z,7.10
2019-04-07T03:01:27.676Z,7.00
2019-04-07T03:04:40.244Z,7.00
2019-04-07T03:07:47.243Z,7.00
2019-04-07T03:10:57.082Z,7.00
2019-04-07T03:14:03.648Z,7.00
2019-04-07T03:17:20.069Z,7.00
2019-04-07T03:20:26.928Z,7.10
2019-04-07T03:23:39.281Z,7.10
2019-04-07T03:26:47.839Z,7.10
2019-04-07T03:29:56.697Z,7.10
2019-04-07T03:33:08.585Z,7.10
2019-04-07T03:36:10.351Z,7.10
2019-04-07T03:39:20.722Z,7.20
2019-04-07T03:42:19.992Z,7.30
2019-04-07T03:45:32.347Z,7.40
2019-04-07T03:48:28.355Z,7.50
2019-04-07T03:51:33.528Z,7.60
2019-04-07T03:54:43.270Z,7.60
2019-04-07T03:57:42.002Z,7.70
2019-04-07T04:01:17.994Z,7.70
2019-04-07T04:04:30.181Z,7.80
2019-04-07T04:07:32.337Z,7.70
2019-04-07T04:10:34.412Z,7.70
2019-04-07T04:13:31.302Z,7.70
2019-04-07T04:16:36.142Z,7.70
2019-04-07T04:19:27.137Z,7.70
2019-04-07T04:22:18.794Z,7.60
2019-04-07T04:25:10.745Z,7.50
2019-04-07T04:28:02.002Z,7.40
2019-04-07T04:30:51.338Z,7.30
2019-04-07T04:33:42.203Z,7.30
2019-04-07T04:36:33.498Z,7.20
2019-04-07T04:39:24.930Z,7.20
2019-04-07T04:42:14.847Z,7.20
2019-04-07T04:45:06.988Z,7.20
2019-04-07T04:47:56.885Z,7.20
2019-04-07T04:50:49.060Z,7.30
2019-04-07T04:53:38.575Z,7.30
2019-04-07T04:56:29.523Z,7.30
2019-04-07T04:59:20.376Z,7.30
2019-04-07T05:02:12.062Z,7.30
2019-04-07T05:05:03.903Z,7.30
2019-04-07T05:08:00.760Z,7.30
2019-04-07T05:10:47.143Z,7.30
2019-04-07T05:13:39.000Z,7.40
2019-04-07T05:16:29.640Z,7.40
2019-04-07T05:19:19.440Z,7.60
2019-04-07T05:22:11.222Z,7.70
2019-04-07T05:25:02.480Z,7.80
2019-04-07T05:27:53.627Z,7.90
2019-04-07T05:30:44.112Z,8.00
2019-04-07T05:33:35.562Z,8.10
2019-04-07T05:36:26.857Z,8.20
2019-04-07T05:39:17.417Z,8.30
2019-04-07T05:42:09.059Z,8.40
2019-04-07T05:44:59.647Z,8.50
2019-04-07T05:47:51.750Z,8.60
2019-04-07T05:50:42.881Z,8.70
2019-04-07T05:53:34.465Z,8.80
2019-04-07T05:56:28.105Z,8.90
2019-04-07T05:59:17.657Z,9.00
2019-04-07T06:02:08.951Z,9.10
2019-04-07T06:05:00.401Z,9.10
2019-04-07T06:07:51.540Z,9.20
2019-04-07T06:10:42.342Z,9.40
2019-04-07T06:13:32.952Z,9.50
2019-04-07T06:16:24.720Z,9.70
2019-04-07T06:19:16.069Z,9.80
2019-04-07T06:22:08.397Z,10.00
2019-04-07T06:25:00.763Z,10.10
2019-04-07T06:27:51.786Z,10.20
2019-04-07T06:30:42.800Z,10.30
2019-04-07T06:33:36.671Z,10.40
2019-04-07T06:36:26.814Z,10.60
2019-04-07T06:39:18.881Z,10.70
2019-04-07T06:42:08.720Z,10.90
2019-04-07T06:45:00.330Z,11.00
2019-04-07T06:47:53.679Z,11.10
2019-04-07T06:50:56.907Z,11.30
2019-04-07T06:54:05.853Z,11.30
2019-04-07T06:57:12.924Z,11.50
2019-04-07T07:00:23.845Z,11.60
2019-04-07T07:03:36.010Z,11.60
2019-04-07T07:06:38.661Z,11.70
2019-04-07T07:09:39.901Z,11.80
2019-04-07T07:12:48.109Z,11.90
2019-04-07T07:16:07.850Z,11.90
2019-04-07T07:19:26.244Z,12.00
2019-04-07T07:22:17.480Z,12.00
2019-04-07T07:25:11.255Z,12.10
2019-04-07T07:28:01.679Z,12.10
2019-04-07T07:30:53.374Z,12.20
2019-04-07T07:33:44.736Z,12.30
2019-04-07T07:36:35.057Z,12.40
2019-04-07T07:39:25.220Z,12.40
2019-04-07T07:42:15.761Z,12.50
2019-04-07T07:45:10.740Z,12.60
2019-04-07T07:47:57.754Z,12.70
2019-04-07T07:50:48.801Z,12.80
2019-04-07T07:53:39.408Z,12.90
2019-04-07T07:56:31.279Z,13.00
2019-04-07T07:59:22.880Z,13.10
2019-04-07T08:02:17.404Z,13.30
2019-04-07T08:05:07.150Z,13.40
2019-04-07T08:07:58.500Z,13.60
2019-04-07T08:10:49.083Z,13.70
2019-04-07T08:13:43.952Z,13.90
2019-04-07T08:16:32.500Z,14.20
2019-04-07T08:19:27.323Z,14.60
2019-04-07T08:22:26.500Z,14.90
2019-04-07T08:25:08.707Z,15.20
2019-04-07T08:28:02.167Z,15.40
2019-04-07T08:30:52.626Z,15.50
2019-04-07T08:33:43.517Z,15.70
2019-04-07T08:36:34.787Z,16.00
2019-04-07T08:39:29.081Z,16.50
2019-04-07T08:42:18.671Z,17.10
2019-04-07T08:45:10.200Z,17.70
2019-04-07T08:48:01.046Z,18.20
2019-04-07T08:50:51.869Z,18.80
2019-04-07T08:53:44.054Z,19.30
2019-04-07T08:56:34.340Z,20.00
2019-04-07T08:59:25.949Z,20.50
2019-04-07T09:02:18.841Z,20.90
2019-04-07T09:05:07.920Z,21.40
2019-04-07T09:07:59.442Z,21.50
2019-04-07T09:11:12.947Z,21.40
2019-04-07T09:14:06.044Z,21.40
2019-04-07T09:17:23.271Z,21.20
2019-04-07T09:20:31.351Z,21.00
2019-04-07T09:23:36.080Z,20.80
2019-04-07T09:26:52.425Z,20.80
2019-04-07T09:30:05.490Z,20.70
2019-04-07T09:33:37.721Z,21.00
2019-04-07T09:36:50.122Z,21.40
2019-04-07T09:40:07.542Z,21.90
2019-04-07T09:43:16.845Z,22.40
2019-04-07T09:46:24.918Z,22.20
2019-04-07T09:49:37.859Z,22.00
2019-04-07T09:52:49.288Z,22.00
2019-04-07T09:56:06.645Z,22.20
2019-04-07T09:59:19.246Z,22.30
2019-04-07T10:02:34.469Z,22.30
2019-04-07T10:05:52.739Z,22.40
2019-04-07T10:09:05.522Z,22.60
2019-04-07T10:12:15.144Z,22.90
2019-04-07T10:15:38.642Z,23.80
2019-04-07T10:18:46.840Z,24.70
2019-04-07T10:21:56.711Z,26.00
2019-04-07T10:25:09.241Z,27.30
2019-04-07T10:28:08.907Z,28.40
2019-04-07T10:31:20.994Z,28.40
2019-04-07T10:34:29.881Z,29.00
2019-04-07T10:37:42.806Z,29.80
2019-04-07T10:40:40.270Z,30.80
2019-04-07T10:43:39.351Z,31.20
2019-04-07T10:46:37.860Z,31.60
2019-04-07T10:49:41.220Z,32.20
2019-04-07T10:52:56.186Z,32.70
2019-04-07T10:56:08.881Z,32.30
2019-04-07T10:59:30.823Z,31.90
2019-04-07T11:02:39.341Z,32.10
2019-04-07T11:05:54.933Z,32.70
2019-04-07T11:09:03.799Z,33.30
2019-04-07T11:12:23.227Z,33.80
2019-04-07T11:15:33.022Z,34.00
2019-04-07T11:18:54.958Z,34.10
2019-04-07T11:22:14.412Z,33.90
2019-04-07T11:25:28.406Z,33.20
2019-04-07T11:28:30.637Z,32.60
2019-04-07T11:31:49.560Z,30.80
2019-04-07T11:34:59.528Z,29.70
2019-04-07T11:38:08.148Z,29.50
2019-04-07T11:41:23.465Z,30.40
2019-04-07T11:44:19.921Z,31.30
2019-04-07T11:47:19.784Z,31.50
2019-04-07T11:50:19.940Z,32.00
2019-04-07T11:53:21.400Z,31.90
2019-04-07T11:56:30.776Z,32.10
2019-04-07T11:59:39.600Z,32.20
2019-04-07T12:02:54.374Z,32.60
2019-04-07T12:05:59.794Z,32.90
2019-04-07T12:09:12.026Z,33.90
2019-04-07T12:12:26.607Z,34.40
2019-04-07T12:15:36.720Z,34.90
2019-04-07T12:18:40.728Z,35.50
2019-04-07T12:21:38.581Z,36.20
2019-04-07T12:24:49.109Z,37.10
2019-04-07T12:28:17.587Z,37.50
2019-04-07T12:31:22.709Z,37.50
2019-04-07T12:34:43.983Z,36.10
2019-04-07T12:37:48.829Z,34.40
2019-04-07T12:40:56.362Z,32.50
2019-04-07T12:44:04.401Z,31.70
2019-04-07T12:47:20.122Z,32.00
2019-04-07T12:50:16.646Z,33.00
2019-04-07T12:53:21.901Z,33.90
2019-04-07T12:56:23.104Z,34.80
2019-04-07T12:59:30.769Z,34.30
2019-04-07T13:02:42.452Z,33.50
2019-04-07T13:05:54.128Z,32.60
2019-04-07T13:09:10.339Z,32.10
2019-04-07T13:12:22.339Z,32.70
2019-04-07T13:15:35.481Z,33.90
2019-04-07T13:18:39.802Z,34.80
2019-04-07T13:21:36.039Z,35.10
2019-04-07T13:24:59.235Z,35.70
2019-04-07T13:28:11.281Z,35.70
2019-04-07T13:31:30.312Z,35.00
2019-04-07T13:34:42.341Z,35.60
2019-04-07T13:38:01.216Z,36.20
2019-04-07T13:41:10.501Z,36.20
2019-04-07T13:44:17.221Z,35.40
2019-04-07T13:47:38.777Z,34.10
2019-04-07T13:50:49.206Z,32.30
2019-04-07T13:54:11.070Z,31.20
2019-04-07T13:57:30.673Z,31.80
2019-04-07T14:00:42.658Z,32.30
2019-04-07T14:03:49.447Z,32.40
2019-04-07T14:07:01.327Z,31.50
2019-04-07T14:10:22.648Z,30.50
2019-04-07T14:13:40.415Z,29.70
2019-04-07T14:16:46.453Z,29.90
2019-04-07T14:19:48.770Z,31.40
2019-04-07T14:23:01.087Z,33.50
2019-04-07T14:26:00.120Z,34.30
2019-04-07T14:29:24.617Z,33.10
2019-04-07T14:32:24.121Z,31.20
2019-04-07T14:35:39.440Z,30.10
2019-04-07T14:38:41.292Z,30.40
2019-04-07T14:42:03.940Z,31.00
2019-04-07T14:45:06.725Z,32.40
2019-04-07T14:48:13.314Z,34.20
2019-04-07T14:51:42.657Z,35.80
2019-04-07T14:54:57.098Z,36.40
2019-04-07T14:58:02.821Z,37.10
2019-04-07T15:01:12.657Z,37.50
2019-04-07T15:04:04.316Z,37.10
2019-04-07T15:07:24.740Z,36.50
2019-04-07T15:10:22.680Z,35.70
2019-04-07T15:13:15.990Z,35.10
2019-04-07T15:16:06.481Z,34.60
2019-04-07T15:18:58.569Z,33.80
2019-04-07T15:21:53.038Z,32.60
2019-04-07T15:24:42.860Z,31.30
2019-04-07T15:27:33.725Z,30.60
2019-04-07T15:30:24.315Z,30.10
2019-04-07T15:33:15.705Z,29.70
2019-04-07T15:36:08.300Z,29.10
2019-04-07T15:38:58.646Z,28.40
2019-04-07T15:41:50.971Z,27.80
2019-04-07T15:44:42.472Z,27.50
2019-04-07T15:47:33.401Z,27.40
2019-04-07T15:50:24.730Z,27.60
2019-04-07T15:53:15.576Z,27.90
2019-04-07T15:56:08.238Z,28.40
2019-04-07T15:59:00.733Z,28.90
2019-04-07T16:01:50.559Z,29.50
2019-04-07T16:04:41.801Z,30.00
2019-04-07T16:07:33.639Z,30.50
2019-04-07T16:10:26.101Z,31.10
2019-04-07T16:13:17.390Z,31.50
2019-04-07T16:16:10.001Z,31.90
2019-04-07T16:19:01.205Z,31.20
2019-04-07T16:21:52.420Z,29.90
2019-04-07T16:24:42.643Z,28.10
2019-04-07T16:27:36.575Z,26.50
2019-04-07T16:30:24.842Z,24.90
2019-04-07T16:33:16.350Z,23.70
2019-04-07T16:36:07.480Z,22.90
2019-04-07T16:39:00.387Z,22.30
2019-04-07T16:41:53.400Z,22.00
2019-04-07T16:44:44.625Z,21.50
2019-04-07T16:47:37.445Z,21.40
2019-04-07T16:50:28.279Z,21.40
2019-04-07T16:53:18.960Z,21.20
2019-04-07T16:56:09.381Z,21.10
2019-04-07T16:59:01.409Z,21.00
2019-04-07T17:01:52.954Z,20.50
2019-04-07T17:04:43.401Z,19.90
2019-04-07T17:07:33.986Z,19.30
2019-04-07T17:10:28.755Z,18.80
2019-04-07T17:13:23.842Z,18.40
2019-04-07T17:16:11.586Z,18.00
2019-04-07T17:19:02.075Z,17.70
2019-04-07T17:21:53.425Z,17.30
2019-04-07T17:24:44.219Z,17.00
2019-04-07T17:27:35.328Z,16.70
2019-04-07T17:30:28.065Z,16.50
2019-04-07T17:33:20.896Z,16.30
2019-04-07T17:36:15.397Z,16.00
2019-04-07T17:39:22.862Z,15.80
2019-04-07T17:42:15.652Z,15.60
2019-04-07T17:45:24.919Z,15.50
2019-04-07T17:48:47.581Z,15.30
2019-04-07T17:51:51.539Z,15.10
2019-04-07T17:55:12.709Z,15.00
2019-04-07T17:58:25.184Z,14.80
2019-04-07T18:01:44.144Z,14.70
2019-04-07T18:04:53.704Z,14.60
2019-04-07T18:08:03.399Z,14.40
2019-04-07T18:11:15.615Z,14.30
2019-04-07T18:14:35.041Z,14.10
2019-04-07T18:17:49.875Z,14.00
2019-04-07T18:21:11.690Z,14.00
2019-04-07T18:24:18.088Z,14.00
2019-04-07T18:27:17.789Z,13.90
2019-04-07T18:30:30.476Z,14.00
2019-04-07T18:33:50.737Z,14.00
2019-04-07T18:37:14.800Z,14.00
2019-04-07T18:40:29.574Z,14.00
2019-04-07T18:43:28.994Z,14.00
2019-04-07T18:46:41.104Z,14.00
2019-04-07T18:50:07.172Z,14.10
2019-04-07T18:53:16.697Z,14.10
2019-04-07T18:56:32.681Z,14.00
2019-04-07T18:59:55.405Z,14.00
2019-04-07T19:02:49.300Z,14.00
2019-04-07T19:05:59.351Z,13.90
2019-04-07T19:08:59.890Z,13.80
2019-04-07T19:12:16.708Z,13.70
2019-04-07T19:15:23.041Z,13.60
2019-04-07T19:18:35.469Z,13.50
2019-04-07T19:22:00.461Z,13.30
2019-04-07T19:25:17.184Z,13.20
2019-04-07T19:28:33.819Z,13.10
2019-04-07T19:31:50.678Z,13.00
2019-04-07T19:35:16.890Z,12.90
2019-04-07T19:38:43.939Z,12.80
2019-04-07T19:41:54.040Z,12.60
2019-04-07T19:45:09.231Z,12.50
2019-04-07T19:48:28.808Z,12.30
2019-04-07T19:51:39.508Z,12.20
2019-04-07T19:55:01.511Z,12.10
2019-04-07T19:58:35.023Z,12.00
2019-04-07T20:01:52.628Z,11.90
2019-04-07T20:05:01.270Z,11.80
2019-04-07T20:08:22.901Z,11.70
2019-04-07T20:11:35.767Z,11.60
2019-04-07T20:14:49.300Z,11.50
2019-04-07T20:17:52.718Z,11.40
2019-04-07T20:21:17.621Z,11.30
2019-04-07T20:24:36.704Z,11.20
2019-04-07T20:27:44.864Z,11.10
2019-04-07T20:30:54.164Z,11.10
2019-04-07T20:33:57.220Z,11.00
2019-04-07T20:36:59.802Z,11.00
2019-04-07T20:40:12.260Z,10.90
2019-04-07T20:43:12.254Z,10.90
2019-04-07T20:46:36.780Z,10.90
2019-04-07T20:49:56.933Z,10.80
2019-04-07T20:53:17.349Z,10.80
2019-04-07T20:56:33.190Z,10.70
2019-04-07T20:59:49.419Z,10.70
2019-04-07T21:02:41.242Z,10.70
2019-04-07T21:05:54.468Z,10.60
2019-04-07T21:09:03.616Z,10.60
2019-04-07T21:12:06.500Z,10.60
2019-04-07T21:15:26.048Z,10.50
2019-04-07T21:18:32.808Z,10.50
2019-04-07T21:21:46.241Z,10.40
2019-04-07T21:24:55.198Z,10.40
2019-04-07T21:27:53.400Z,10.30
2019-04-07T21:31:05.566Z,10.20
2019-04-07T21:34:20.901Z,10.20
2019-04-07T21:37:29.061Z,10.20
2019-04-07T21:40:44.308Z,10.10
2019-04-07T21:43:58.251Z,10.10
2019-04-07T21:47:08.373Z,10.10
2019-04-07T21:50:15.153Z,10.00
2019-04-07T21:53:28.835Z,9.90
2019-04-07T21:56:34.841Z,9.90
2019-04-07T21:59:46.489Z,9.80
2019-04-07T22:02:48.323Z,9.70
2019-04-07T22:06:10.976Z,9.70
2019-04-07T22:09:06.854Z,9.60
2019-04-07T22:11:58.071Z,9.50
2019-04-07T22:14:48.320Z,9.40
2019-04-07T22:17:39.354Z,9.40
2019-04-07T22:20:30.164Z,9.30
2019-04-07T22:23:21.465Z,9.30
2019-04-07T22:26:16.401Z,9.20
2019-04-07T22:29:04.580Z,9.10
2019-04-07T22:31:57.767Z,9.10
2019-04-07T22:34:48.218Z,9.00
2019-04-07T22:37:39.914Z,8.90
2019-04-07T22:40:34.227Z,8.90
2019-04-07T22:43:24.814Z,8.80
2019-04-07T22:46:21.163Z,8.80
2019-04-07T22:49:09.233Z,8.70
2019-04-07T22:52:00.081Z,8.70
2019-04-07T22:54:50.601Z,8.60
2019-04-07T22:57:41.091Z,8.50
2019-04-07T23:00:32.420Z,8.50
2019-04-07T23:03:24.002Z,8.40
2019-04-07T23:06:14.800Z,8.30
2019-04-07T23:09:06.328Z,8.20
2019-04-07T23:11:56.880Z,8.10
2019-04-07T23:14:47.659Z,8.10
2019-04-07T23:17:39.767Z,8.00
2019-04-07T23:20:31.226Z,8.00
2019-04-07T23:23:21.960Z,7.90
2019-04-07T23:26:11.921Z,7.90
2019-04-07T23:29:03.704Z,7.90
2019-04-07T23:31:53.472Z,7.80
2019-04-07T23:34:43.923Z,7.70
2019-04-07T23:37:35.140Z,7.70
2019-04-07T23:40:26.645Z,7.60
2019-04-07T23:43:17.350Z,7.60
2019-04-07T23:46:19.578Z,7.60
2019-04-07T23:49:00.080Z,7.50
2019-04-07T23:51:51.061Z,7.50
2019-04-07T23:54:41.735Z,7.40
2019-04-07T23:57:32.600Z,7.40
